Time,TemperatureF,DewpointF,PressureIn,WindDirection,WindDirectionDegrees,WindSpeedMPH,WindSpeedGustMPH,Humidity,HourlyPrecipIn,Conditions,Clouds,dailyrainin,SoftwareType,DateUTC
2013-05-02 12:10:00,37.4,36.4,0.00,NW,322,6.2,-999.0,96,0.00,,,-99.99,,2013-05-02 20:10:00,
2013-05-02 12:11:00,37.8,36.9,0.00,NW,312,7.1,-999.0,96,0.00,,,-99.99,,2013-05-02 20:11:00,
2013-05-02 12:12:00,37.8,36.8,0.00,NW,313,6.9,-999.0,96,0.00,,,-99.99,,2013-05-02 20:12:00,
2013-05-02 12:17:00,38.6,35.8,0.00,NNW,338,9.6,-999.0,89,0.00,,,-99.99,,2013-05-02 20:17:00,
2013-05-02 12:20:00,39.1,36.0,0.00,NNW,329,9.0,-999.0,88,0.00,,,-99.99,,2013-05-02 20:20:00,
2013-05-02 12:25:00,39.4,36.6,0.00,NNW,345,9.3,-999.0,89,0.00,,,-99.99,,2013-05-02 20:25:00,
2013-05-02 12:30:00,39.4,35.7,0.00,NNW,335,10.3,-999.0,86,0.00,,,-99.99,,2013-05-02 20:30:00,
2013-05-02 12:35:00,38.9,35.9,0.00,NNW,339,8.6,-999.0,88,0.00,,,-99.99,,2013-05-02 20:35:00,
2013-05-02 12:40:00,38.9,36.1,0.00,NNW,333,9.0,-999.0,89,0.00,,,-99.99,,2013-05-02 20:40:00,
2013-05-02 12:47:00,39.1,36.2,0.00,NNW,343,9.0,-999.0,89,0.00,,,-99.99,,2013-05-02 20:47:00,
2013-05-02 12:53:00,39.1,36.0,0.00,NNW,332,9.2,-999.0,88,0.00,,,-99.99,,2013-05-02 20:53:00,
2013-05-02 12:58:00,39.1,35.8,0.00,NNW,342,11.3,-999.0,87,0.00,,,-99.99,,2013-05-02 20:58:00,
2013-05-02 13:03:00,39.5,36.5,0.00,North,353,9.0,-999.0,88,0.00,,,-99.99,,2013-05-02 21:03:00,
2013-05-02 13:08:00,39.7,36.1,0.00,NNW,343,11.8,-999.0,87,0.00,,,-99.99,,2013-05-02 21:08:00,
2013-05-02 13:13:00,39.9,36.4,0.00,North,0,9.3,-999.0,87,0.00,,,-99.99,,2013-05-02 21:13:00,
2013-05-02 13:18:00,40.0,36.7,0.00,NNW,340,9.6,-999.0,87,0.00,,,-99.99,,2013-05-02 21:18:00,
2013-05-02 13:23:00,40.2,36.4,0.00,NNW,333,8.9,-999.0,86,0.00,,,-99.99,,2013-05-02 21:23:00,
2013-05-02 13:28:00,40.0,36.2,0.00,North,351,8.9,-999.0,86,0.00,,,-99.99,,2013-05-02 21:28:00,
2013-05-02 13:33:00,39.1,37.2,0.00,NE,46,5.5,-999.0,92,0.00,,,-99.99,,2013-05-02 21:33:00,
2013-05-02 13:38:00,38.6,37.7,0.00,NNE,15,6.1,-999.0,96,0.00,,,-99.99,,2013-05-02 21:38:00,
2013-05-02 13:43:00,38.5,37.8,0.00,NNW,327,6.1,-999.0,97,0.00,,,-99.99,,2013-05-02 21:43:00,
2013-05-02 13:48:00,38.1,37.4,0.00,NNW,332,11.4,-999.0,97,0.00,,,-99.99,,2013-05-02 21:48:00,
2013-05-02 13:53:00,37.9,37.3,0.00,NW,324,9.0,-999.0,97,0.00,,,-99.99,,2013-05-02 21:53:00,
2013-05-02 13:58:00,37.8,37.3,0.00,NW,310,11.5,-999.0,98,0.00,,,-99.99,,2013-05-02 21:58:00,
2013-05-02 14:03:00,37.8,37.4,0.00,NW,321,9.4,-999.0,98,0.00,,,-99.99,,2013-05-02 22:03:00,
2013-05-02 14:08:00,37.7,37.3,0.00,South,176,2.1,-999.0,98,0.00,,,-99.99,,2013-05-02 22:08:00,
2013-05-02 14:13:00,37.7,37.4,0.00,SE,145,8.4,-999.0,98,0.00,,,-99.99,,2013-05-02 22:13:00,
2013-05-02 14:18:00,37.8,37.5,0.00,NNE,14,3.5,-999.0,98,0.00,,,-99.99,,2013-05-02 22:18:00,
2013-05-02 14:23:00,38.3,38.1,0.00,NE,48,4.1,-999.0,99,0.00,,,-99.99,,2013-05-02 22:23:00,
2013-05-02 14:28:00,38.3,38.0,0.00,South,186,4.0,-999.0,99,0.00,,,-99.99,,2013-05-02 22:28:00,
2013-05-02 14:33:00,38.8,38.5,0.00,South,173,1.9,-999.0,99,0.00,,,-99.99,,2013-05-02 22:33:00,
2013-05-02 14:38:00,38.6,38.3,0.00,ENE,66,4.3,-999.0,99,0.00,,,-99.99,,2013-05-02 22:38:00,
2013-05-02 14:43:00,38.2,37.9,0.00,NNW,337,1.8,-999.0,99,0.00,,,-99.99,,2013-05-02 22:43:00,
2013-05-02 14:48:00,38.4,38.1,0.00,NNW,329,2.4,-999.0,98,0.00,,,-99.99,,2013-05-02 22:48:00,
2013-05-02 14:53:00,38.3,38.0,0.00,WNW,299,1.0,-999.0,99,0.00,,,-99.99,,2013-05-02 22:53:00,
2013-05-02 14:58:00,38.9,38.6,0.00,NW,323,4.8,-999.0,99,0.00,,,-99.99,,2013-05-02 22:58:00,
2013-05-02 15:03:00,39.7,39.4,0.00,South,184,2.2,-999.0,99,0.00,,,-99.99,,2013-05-02 23:03:00,
2013-05-02 15:08:00,39.4,39.1,0.00,WSW,252,4.9,-999.0,98,0.00,,,-99.99,,2013-05-02 23:08:00,
2013-05-02 15:13:00,38.5,38.0,0.00,South,188,2.9,-999.0,98,0.00,,,-99.99,,2013-05-02 23:13:00,
2013-05-02 15:18:00,38.8,38.5,0.00,SE,142,5.4,-999.0,98,0.00,,,-99.99,,2013-05-02 23:18:00,
2013-05-02 15:23:00,39.8,39.6,0.00,SSE,161,1.9,-999.0,99,0.00,,,-99.99,,2013-05-02 23:23:00,
2013-05-02 15:28:00,39.5,39.1,0.00,SSE,160,2.0,-999.0,98,0.00,,,-99.99,,2013-05-02 23:28:00,
2013-05-02 15:33:00,39.4,38.9,0.00,SW,227,2.6,-999.0,98,0.00,,,-99.99,,2013-05-02 23:33:00,
2013-05-02 15:38:00,38.9,38.4,0.00,SE,133,2.6,-999.0,98,0.00,,,-99.99,,2013-05-02 23:38:00,
2013-05-02 15:43:00,38.9,38.4,0.00,SE,125,2.7,-999.0,98,0.00,,,-99.99,,2013-05-02 23:43:00,
2013-05-02 15:48:00,38.6,38.1,0.00,SE,143,6.3,-999.0,98,0.00,,,-99.99,,2013-05-02 23:48:00,
2013-05-02 15:53:00,38.4,38.0,0.00,SE,136,5.3,-999.0,98,0.00,,,-99.99,,2013-05-02 23:53:00,
2013-05-02 15:59:00,38.1,37.8,0.00,East,89,4.4,-999.0,98,0.00,,,-99.99,,2013-05-02 23:59:00,
2013-05-02 16:04:00,38.2,37.9,0.00,SE,141,2.3,-999.0,98,0.00,,,-99.99,,2013-05-03 00:04:00,
2013-05-02 16:09:00,38.3,38.0,0.00,NNE,17,1.4,-999.0,99,0.00,,,-99.99,,2013-05-03 00:09:00,
2013-05-02 16:14:00,37.8,37.6,0.00,NE,48,4.5,-999.0,99,0.00,,,-99.99,,2013-05-03 00:14:00,
2013-05-02 16:19:00,38.2,37.9,0.00,SW,221,3.6,-999.0,99,0.00,,,-99.99,,2013-05-03 00:19:00,
2013-05-02 16:24:00,38.4,38.2,0.00,South,177,5.0,-999.0,99,0.00,,,-99.99,,2013-05-03 00:24:00,
2013-05-02 16:29:00,39.0,38.7,0.00,SE,142,4.3,-999.0,99,0.00,,,-99.99,,2013-05-03 00:29:00,
2013-05-02 16:34:00,38.8,38.6,0.00,East,83,2.3,-999.0,99,0.00,,,-99.99,,2013-05-03 00:34:00,
2013-05-02 16:39:00,38.7,38.4,0.00,ESE,118,5.3,-999.0,99,0.00,,,-99.99,,2013-05-03 00:39:00,
2013-05-02 16:44:00,38.5,38.2,0.00,East,85,8.0,-999.0,98,0.00,,,-99.99,,2013-05-03 00:44:00,
2013-05-02 16:49:00,38.4,38.0,0.00,SSE,151,5.3,-999.0,98,0.00,,,-99.99,,2013-05-03 00:49:00,
2013-05-02 16:54:00,38.1,37.6,0.00,SSE,149,2.3,-999.0,98,0.00,,,-99.99,,2013-05-03 00:54:00,
2013-05-02 16:59:00,38.1,37.8,0.00,SE,139,7.8,-999.0,98,0.00,,,-99.99,,2013-05-03 00:59:00,
2013-05-02 17:04:00,38.0,37.7,0.00,East,96,5.3,-999.0,98,0.00,,,-99.99,,2013-05-03 01:04:00,
2013-05-02 17:09:00,37.9,37.5,0.00,SSE,149,5.9,-999.0,98,0.00,,,-99.99,,2013-05-03 01:09:00,
2013-05-02 17:14:00,37.7,37.3,0.00,ESE,116,5.6,-999.0,98,0.00,,,-99.99,,2013-05-03 01:14:00,
2013-05-02 17:19:00,38.4,38.1,0.00,NE,53,4.3,-999.0,99,0.00,,,-99.99,,2013-05-03 01:19:00,
2013-05-02 17:24:00,38.3,38.0,0.00,SE,139,2.3,-999.0,99,0.00,,,-99.99,,2013-05-03 01:24:00,
2013-05-02 17:29:00,38.3,37.9,0.00,East,95,3.2,-999.0,98,0.00,,,-99.99,,2013-05-03 01:29:00,
2013-05-02 17:34:00,38.0,37.6,0.00,SE,128,2.2,-999.0,98,0.00,,,-99.99,,2013-05-03 01:34:00,
2013-05-02 17:39:00,37.8,37.4,0.00,NNW,345,3.8,-999.0,98,0.00,,,-99.99,,2013-05-03 01:39:00,
2013-05-02 17:44:00,37.6,37.3,0.00,ESE,103,1.5,-999.0,98,0.00,,,-99.99,,2013-05-03 01:44:00,
2013-05-02 17:49:00,37.7,37.4,0.00,SSE,162,1.2,-999.0,99,0.00,,,-99.99,,2013-05-03 01:49:00,
2013-05-02 17:54:00,37.3,37.1,0.00,NNW,333,1.5,-999.0,99,0.00,,,-99.99,,2013-05-03 01:54:00,
2013-05-02 17:59:00,37.8,37.5,0.00,SE,124,4.8,-999.0,99,0.00,,,-99.99,,2013-05-03 01:59:00,
2013-05-02 18:04:00,37.5,37.2,0.00,SW,235,4.5,-999.0,99,0.00,,,-99.99,,2013-05-03 02:04:00,
2013-05-02 18:09:00,37.5,37.2,0.00,East,87,3.6,-999.0,99,0.00,,,-99.99,,2013-05-03 02:09:00,
2013-05-02 18:14:00,37.3,37.2,0.00,East,83,6.1,-999.0,99,0.00,,,-99.99,,2013-05-03 02:14:00,
2013-05-02 18:19:00,37.5,37.3,0.00,NNW,348,3.0,-999.0,99,0.00,,,-99.99,,2013-05-03 02:19:00,
2013-05-02 18:24:00,37.5,37.2,0.00,SE,125,1.5,-999.0,99,0.00,,,-99.99,,2013-05-03 02:24:00,
2013-05-02 18:29:00,37.4,37.2,0.00,North,2,2.8,-999.0,99,0.00,,,-99.99,,2013-05-03 02:29:00,
2013-05-02 18:34:00,37.5,37.3,0.00,NE,48,1.0,-999.0,99,0.00,,,-99.99,,2013-05-03 02:34:00,
2013-05-02 18:39:00,37.7,37.4,0.00,WNW,302,2.5,-999.0,99,0.00,,,-99.99,,2013-05-03 02:39:00,
2013-05-02 18:44:00,37.6,37.4,0.00,NE,46,3.2,-999.0,99,0.00,,,-99.99,,2013-05-03 02:44:00,
2013-05-02 18:49:00,37.7,37.5,0.00,NE,56,4.2,-999.0,99,0.00,,,-99.99,,2013-05-03 02:49:00,
2013-05-02 18:54:00,37.5,37.3,0.00,SE,141,0.2,-999.0,99,0.00,,,-99.99,,2013-05-03 02:54:00,
2013-05-02 18:59:00,37.4,37.2,0.00,East,94,1.7,-999.0,99,0.00,,,-99.99,,2013-05-03 02:59:00,
2013-05-02 19:04:00,37.5,37.3,0.00,NW,322,0.3,-999.0,99,0.00,,,-99.99,,2013-05-03 03:04:00,
2013-05-02 19:09:00,37.4,37.2,0.00,SSE,154,4.1,-999.0,99,0.00,,,-99.99,,2013-05-03 03:09:00,
2013-05-02 19:14:00,37.3,37.2,0.00,SSE,163,1.4,-999.0,99,0.00,,,-99.99,,2013-05-03 03:14:00,
2013-05-02 19:19:00,37.4,37.2,0.00,SW,226,0.7,-999.0,99,0.00,,,-99.99,,2013-05-03 03:19:00,
2013-05-02 19:24:00,37.5,37.3,0.00,SSE,154,2.0,-999.0,99,0.00,,,-99.99,,2013-05-03 03:24:00,
2013-05-02 19:29:00,37.4,37.2,0.00,ESE,110,1.3,-999.0,99,0.00,,,-99.99,,2013-05-03 03:29:00,
2013-05-02 19:34:00,37.5,37.3,0.00,South,177,3.2,-999.0,99,0.00,,,-99.99,,2013-05-03 03:34:00,
2013-05-02 19:39:00,37.3,37.2,0.00,SSW,208,2.5,-999.0,99,0.00,,,-99.99,,2013-05-03 03:39:00,
2013-05-02 19:44:00,37.4,37.3,0.00,ENE,72,2.2,-999.0,99,0.00,,,-99.99,,2013-05-03 03:44:00,
2013-05-02 19:49:00,37.4,37.2,0.00,South,182,0.7,-999.0,99,0.00,,,-99.99,,2013-05-03 03:49:00,
2013-05-02 19:54:00,37.5,37.4,0.00,South,176,1.5,-999.0,99,0.00,,,-99.99,,2013-05-03 03:54:00,
2013-05-02 19:59:00,37.5,37.3,0.00,ESE,112,1.2,-999.0,99,0.00,,,-99.99,,2013-05-03 03:59:00,
2013-05-02 20:01:00,37.5,37.4,0.00,East,84,1.3,-999.0,99,0.00,,,-99.99,,2013-05-03 04:01:00,
2013-05-02 20:02:00,37.5,37.3,0.00,SE,127,3.0,-999.0,99,0.00,,,-99.99,,2013-05-03 04:02:00,
2013-05-02 20:03:00,37.5,37.4,0.00,SSE,150,0.1,-999.0,99,0.00,,,-99.99,,2013-05-03 04:03:00,
2013-05-02 20:04:00,37.5,37.3,0.00,SSE,150,2.1,-999.0,99,0.00,,,-99.99,,2013-05-03 04:04:00,
2013-05-02 20:09:00,37.6,37.4,0.00,WSW,257,1.0,-999.0,99,0.00,,,-99.99,,2013-05-03 04:09:00,
2013-05-02 20:13:00,37.5,37.4,0.00,SSW,202,1.6,-999.0,99,0.00,,,-99.99,,2013-05-03 04:13:00,
2013-05-02 20:18:00,37.5,37.4,0.00,NE,46,0.9,-999.0,99,0.00,,,-99.99,,2013-05-03 04:18:00,
2013-05-02 20:23:00,37.6,37.4,0.00,NNW,337,1.0,-999.0,99,0.00,,,-99.99,,2013-05-03 04:23:00,
2013-05-02 20:28:00,37.7,37.5,0.00,NW,307,6.5,-999.0,99,0.00,,,-99.99,,2013-05-03 04:28:00,
2013-05-02 20:33:00,37.5,37.4,0.00,NNE,30,1.2,-999.0,99,0.00,,,-99.99,,2013-05-03 04:33:00,
2013-05-02 20:38:00,37.4,37.3,0.00,NNW,327,3.2,-999.0,99,0.00,,,-99.99,,2013-05-03 04:38:00,
2013-05-02 20:43:00,37.7,37.6,0.00,SW,225,3.3,-999.0,99,0.00,,,-99.99,,2013-05-03 04:43:00,
2013-05-02 20:48:00,37.8,37.6,0.00,NNW,332,4.8,-999.0,99,0.00,,,-99.99,,2013-05-03 04:48:00,
2013-05-02 20:53:00,38.0,37.8,0.00,North,350,5.0,-999.0,99,0.00,,,-99.99,,2013-05-03 04:53:00,
2013-05-02 20:58:00,37.7,37.5,0.00,NNW,329,4.6,-999.0,99,0.00,,,-99.99,,2013-05-03 04:58:00,
2013-05-02 21:03:00,37.8,37.7,0.00,NNW,329,5.7,-999.0,99,0.00,,,-99.99,,2013-05-03 05:03:00,
2013-05-02 21:08:00,37.8,37.7,0.00,NNW,331,5.8,-999.0,99,0.00,,,-99.99,,2013-05-03 05:08:00,
2013-05-02 21:13:00,37.7,37.6,0.00,NW,324,7.3,-999.0,99,0.00,,,-99.99,,2013-05-03 05:13:00,
2013-05-02 21:18:00,37.8,37.7,0.00,NNW,330,7.6,-999.0,99,0.00,,,-99.99,,2013-05-03 05:18:00,
2013-05-02 21:23:00,37.7,37.6,0.00,NW,326,6.6,-999.0,99,0.00,,,-99.99,,2013-05-03 05:23:00,
2013-05-02 21:28:00,37.6,37.5,0.00,NNW,336,6.4,-999.0,99,0.00,,,-99.99,,2013-05-03 05:28:00,
2013-05-02 21:33:00,37.7,37.6,0.00,North,352,6.3,-999.0,99,0.00,,,-99.99,,2013-05-03 05:33:00,
2013-05-02 21:38:00,37.6,37.5,0.00,NNW,327,7.1,-999.0,99,0.00,,,-99.99,,2013-05-03 05:38:00,
2013-05-02 21:43:00,37.7,37.6,0.00,NNW,330,6.5,-999.0,99,0.00,,,-99.99,,2013-05-03 05:43:00,
2013-05-02 21:48:00,37.8,37.6,0.00,NW,312,5.3,-999.0,99,0.00,,,-99.99,,2013-05-03 05:48:00,
2013-05-02 21:53:00,37.8,37.6,0.00,NNW,336,7.0,-999.0,99,0.00,,,-99.99,,2013-05-03 05:53:00,
2013-05-02 21:58:00,37.8,37.6,0.00,NW,326,6.8,-999.0,99,0.00,,,-99.99,,2013-05-03 05:58:00,
2013-05-02 22:03:00,37.7,37.6,0.00,North,1,7.1,-999.0,99,0.00,,,-99.99,,2013-05-03 06:03:00,
2013-05-02 22:08:00,37.8,37.7,0.00,NNW,327,6.6,-999.0,99,0.00,,,-99.99,,2013-05-03 06:08:00,
2013-05-02 22:13:00,37.8,37.7,0.00,NNW,339,6.5,-999.0,99,0.00,,,-99.99,,2013-05-03 06:13:00,
2013-05-02 22:18:00,37.7,37.6,0.00,NNW,327,7.2,-999.0,99,0.00,,,-99.99,,2013-05-03 06:18:00,
2013-05-02 22:23:00,37.8,37.7,0.00,NNW,348,6.4,-999.0,99,0.00,,,-99.99,,2013-05-03 06:23:00,
2013-05-02 22:28:00,37.7,37.5,0.00,NNW,335,6.3,-999.0,99,0.00,,,-99.99,,2013-05-03 06:28:00,
2013-05-02 22:33:00,37.8,37.7,0.00,NNW,341,7.9,-999.0,99,0.00,,,-99.99,,2013-05-03 06:33:00,
2013-05-02 22:39:00,37.7,37.6,0.00,NNW,328,6.6,-999.0,99,0.00,,,-99.99,,2013-05-03 06:39:00,
2013-05-02 22:44:00,37.8,37.7,0.00,North,0,5.0,-999.0,99,0.00,,,-99.99,,2013-05-03 06:44:00,
2013-05-02 22:49:00,37.8,37.6,0.00,NNW,338,6.0,-999.0,99,0.00,,,-99.99,,2013-05-03 06:49:00,
2013-05-02 22:54:00,37.9,37.8,0.00,NNW,336,6.6,-999.0,99,0.00,,,-99.99,,2013-05-03 06:54:00,
2013-05-02 22:59:00,37.8,37.7,0.00,NNW,343,9.2,-999.0,99,0.00,,,-99.99,,2013-05-03 06:59:00,
2013-05-02 23:04:00,37.9,37.8,0.00,NNW,344,7.1,-999.0,99,0.00,,,-99.99,,2013-05-03 07:04:00,
2013-05-02 23:09:00,38.0,37.9,0.00,NNW,334,6.7,-999.0,99,0.00,,,-99.99,,2013-05-03 07:09:00,
2013-05-02 23:14:00,38.0,37.8,0.00,NNW,339,6.3,-999.0,99,0.00,,,-99.99,,2013-05-03 07:14:00,
2013-05-02 23:19:00,37.8,37.8,0.00,NNE,18,7.7,-999.0,99,0.00,,,-99.99,,2013-05-03 07:19:00,
2013-05-02 23:24:00,37.8,37.8,0.00,North,5,4.8,-999.0,99,0.00,,,-99.99,,2013-05-03 07:24:00,
2013-05-02 23:29:00,37.8,37.6,0.00,NNW,339,3.5,-999.0,99,0.00,,,-99.99,,2013-05-03 07:29:00,
2013-05-02 23:34:00,37.8,37.7,0.00,North,352,3.5,-999.0,99,0.00,,,-99.99,,2013-05-03 07:34:00,
2013-05-02 23:39:00,37.8,37.7,0.00,NNW,348,3.5,-999.0,99,0.00,,,-99.99,,2013-05-03 07:39:00,
2013-05-02 23:44:00,37.7,37.5,0.00,NW,325,2.5,-999.0,99,0.00,,,-99.99,,2013-05-03 07:44:00,
2013-05-02 23:49:00,37.7,37.6,0.00,NW,312,3.8,-999.0,99,0.00,,,-99.99,,2013-05-03 07:49:00,
2013-05-02 23:54:00,37.7,37.5,0.00,West,260,0.3,-999.0,99,0.00,,,-99.99,,2013-05-03 07:54:00,
2013-05-02 23:59:00,37.4,37.3,0.00,WNW,295,0.8,-999.0,99,0.00,,,-99.99,,2013-05-03 07:59:00,